Time;durP1;ratioP1;P1;durP2;ratioP2;P2;SDS_P1;SDS_P2;PMS_P1;PMS_P2;Temp;Humidity;BMP_temperature;BMP_pressure;BME280_temperature;BME280_humidity;BME280_pressure;Samples;Min_cycle;Max_cycle;Signal;HPM_P1;HPM_P2
2021/12/04 00:00:47;;;;;;;18.80;7.20;;;-2.60;1.00;;;;;;4416468;28;654446;-69
2021/12/04 00:03:34;;;;;;;25.90;8.20;;;-2.60;1.00;;;;;;4398698;28;654824;-69
2021/12/04 00:06:25;;;;;;;28.00;8.30;;;-2.70;8.60;;;;;;4402486;28;655451;-69
2021/12/04 00:09:15;;;;;;;23.63;7.28;;;-2.70;58.70;;;;;;4399778;28;655119;-69
2021/12/04 00:12:03;;;;;;;30.27;8.10;;;-2.80;99.90;;;;;;4375374;28;656732;-69
2021/12/04 00:14:52;;;;;;;21.80;7.43;;;-2.90;99.90;;;;;;4398592;28;655190;-71
2021/12/04 00:17:40;;;;;;;18.60;6.83;;;-3.00;99.90;;;;;;4414655;28;655539;-70
2021/12/04 00:20:30;;;;;;;21.23;8.03;;;-3.10;99.90;;;;;;4392554;28;656556;-69
2021/12/04 00:23:18;;;;;;;18.57;7.10;;;-3.10;99.90;;;;;;4394934;28;656166;-69
2021/12/04 00:26:06;;;;;;;18.80;7.10;;;-3.20;99.90;;;;;;4394534;28;655529;-70
2021/12/04 00:28:53;;;;;;;19.47;6.73;;;-3.20;99.90;;;;;;4423234;28;656355;-69
2021/12/04 00:31:47;;;;;;;21.77;6.87;;;-3.30;99.90;;;;;;4398398;28;655766;-69
2021/12/04 00:34:39;;;;;;;25.00;7.43;;;-3.30;99.90;;;;;;4404992;28;655928;-70
2021/12/04 00:37:51;;;;;;;19.20;7.23;;;-3.40;99.90;;;;;;4408261;28;657011;-70
2021/12/04 00:49:56;;;;;;;22.35;7.22;;;-3.70;99.90;;;;;;4407115;28;655812;-71
2021/12/04 00:52:43;;;;;;;22.47;6.17;;;-3.80;99.90;;;;;;4425463;28;656670;-70
2021/12/04 00:55:31;;;;;;;25.80;8.13;;;-3.80;1.00;;;;;;4404393;28;655969;-71
2021/12/04 00:58:19;;;;;;;23.17;8.57;;;-3.90;1.00;;;;;;4426038;28;654775;-70
2021/12/04 01:01:06;;;;;;;29.87;8.50;;;-4.00;1.00;;;;;;4402882;28;655202;-71
2021/12/04 01:03:55;;;;;;;32.87;10.20;;;-4.00;1.00;;;;;;4425811;28;654709;-70
2021/12/04 01:06:43;;;;;;;30.63;9.00;;;-4.10;1.00;;;;;;4399771;28;656576;-70
2021/12/04 01:09:31;;;;;;;32.03;10.38;;;-4.20;1.00;;;;;;4405420;28;655287;-71
2021/12/04 01:12:18;;;;;;;31.53;10.67;;;-4.20;1.00;;;;;;4430902;28;655837;-70
2021/12/04 01:15:07;;;;;;;25.30;8.43;;;-4.20;1.00;;;;;;4404664;28;655696;-71
2021/12/04 01:17:54;;;;;;;29.17;9.27;;;-4.30;1.00;;;;;;4423619;28;654395;-70
2021/12/04 01:20:44;;;;;;;33.10;10.83;;;-4.40;1.00;;;;;;4407656;28;654563;-70
2021/12/04 01:23:31;;;;;;;30.47;9.77;;;-4.40;1.00;;;;;;4408902;28;655558;-70
2021/12/04 01:26:20;;;;;;;30.80;10.43;;;-4.40;1.00;;;;;;4420297;28;655061;-70
2021/12/04 01:29:07;;;;;;;29.57;9.77;;;-4.50;1.00;;;;;;4404252;28;656018;-70
2021/12/04 01:31:55;;;;;;;22.30;8.37;;;-4.40;1.00;;;;;;4418988;28;654381;-69
2021/12/04 01:34:42;;;;;;;15.60;6.50;;;-4.50;1.00;;;;;;4398388;28;655420;-70
2021/12/04 01:37:32;;;;;;;23.10;8.17;;;-4.30;1.00;;;;;;4419547;28;655357;-71
2021/12/04 01:40:20;;;;;;;23.20;7.60;;;-4.30;1.00;;;;;;4424780;28;654949;-69
2021/12/04 01:43:08;;;;;;;23.60;7.07;;;-4.30;1.00;;;;;;4406868;28;654551;-69
2021/12/04 01:45:56;;;;;;;16.60;6.97;;;-4.30;1.00;;;;;;4406659;28;654419;-70
2021/12/04 01:48:44;;;;;;;18.17;6.90;;;-4.30;1.00;;;;;;4418669;28;654545;-69
2021/12/04 01:51:31;;;;;;;22.63;7.50;;;-4.30;1.00;;;;;;4404396;28;654480;-69
2021/12/04 01:54:20;;;;;;;17.37;6.40;;;-4.30;1.00;;;;;;4424639;28;655120;-69
2021/12/04 01:57:08;;;;;;;20.03;6.90;;;-4.40;1.00;;;;;;4394724;28;655320;-68
2021/12/04 01:59:56;;;;;;;19.80;7.23;;;-4.50;1.00;;;;;;4400890;28;654369;-72
2021/12/04 02:02:43;;;;;;;25.87;7.47;;;-4.40;1.00;;;;;;4425442;28;655418;-68
2021/12/04 02:05:31;;;;;;;32.57;9.23;;;-4.50;1.00;;;;;;4400083;28;654731;-70
2021/12/04 02:08:20;;;;;;;22.53;7.97;;;-4.60;1.00;;;;;;4420761;28;655172;-70
2021/12/04 02:11:09;;;;;;;28.17;7.97;;;-4.60;1.00;;;;;;4396141;28;655344;-71
2021/12/04 02:13:57;;;;;;;20.27;6.73;;;-4.60;1.00;;;;;;4401461;28;656410;-70
2021/12/04 02:16:45;;;;;;;21.63;7.97;;;-4.70;1.00;;;;;;4421607;28;653926;-70
2021/12/04 02:19:32;;;;;;;19.97;6.90;;;-4.80;1.00;;;;;;4403017;28;655098;-70
2021/12/04 02:22:21;;;;;;;28.33;7.83;;;-4.80;1.00;;;;;;4425034;28;654479;-70
2021/12/04 02:25:10;;;;;;;22.07;7.20;;;-4.80;1.00;;;;;;4397557;28;655022;-70
2021/12/04 02:27:57;;;;;;;21.67;7.43;;;-4.90;1.00;;;;;;4402481;28;655847;-71
2021/12/04 02:30:47;;;;;;;22.77;8.00;;;-4.90;1.00;;;;;;4418579;28;654489;-70
2021/12/04 02:33:34;;;;;;;22.17;7.17;;;-4.90;1.00;;;;;;4405851;28;654496;-70
2021/12/04 02:36:22;;;;;;;19.30;7.67;;;-4.90;1.00;;;;;;4403917;28;654396;-71
2021/12/04 02:39:12;;;;;;;23.27;7.60;;;-5.00;1.00;;;;;;4418646;28;654935;-71
2021/12/04 02:42:00;;;;;;;21.83;8.50;;;-5.00;1.00;;;;;;4394885;28;654439;-71
2021/12/04 02:44:48;;;;;;;22.25;8.40;;;-5.00;1.00;;;;;;4403616;28;654925;-72
2021/12/04 02:47:36;;;;;;;27.47;8.97;;;-5.10;1.00;;;;;;4403813;28;655118;-73
2021/12/04 02:50:23;;;;;;;27.57;8.93;;;-5.10;1.00;;;;;;4426459;28;654957;-71
2021/12/04 02:53:11;;;;;;;19.67;7.13;;;-5.10;1.00;;;;;;4402924;28;653997;-72
2021/12/04 02:56:00;;;;;;;23.47;8.03;;;-5.10;1.00;;;;;;4422162;28;655533;-71
2021/12/04 02:58:51;;;;;;;24.93;7.73;;;-5.10;1.00;;;;;;4400150;28;655596;-71
2021/12/04 03:01:39;;;;;;;23.67;7.37;;;-5.20;1.00;;;;;;4393771;28;655106;-71
2021/12/04 03:04:27;;;;;;;21.47;7.70;;;-5.10;1.00;;;;;;4410480;28;655651;-71
2021/12/04 03:07:16;;;;;;;18.90;6.83;;;-5.20;1.00;;;;;;4417310;28;655617;-72
2021/12/04 03:10:04;;;;;;;14.80;6.47;;;-5.10;1.00;;;;;;4418501;28;655348;-70
2021/12/04 03:12:53;;;;;;;17.92;6.57;;;-5.10;1.00;;;;;;4403592;28;654468;-71
2021/12/04 03:15:43;;;;;;;19.00;7.95;;;-5.10;1.00;;;;;;4401603;28;655296;-71
2021/12/04 03:18:31;;;;;;;34.83;11.70;;;-5.20;1.00;;;;;;4409042;28;654666;-72
2021/12/04 03:21:19;;;;;;;28.13;9.83;;;-5.20;1.00;;;;;;4424321;28;655801;-71
2021/12/04 03:24:08;;;;;;;22.47;8.43;;;-5.20;1.00;;;;;;4407965;28;655251;-71
2021/12/04 03:26:56;;;;;;;27.77;8.47;;;-5.20;1.00;;;;;;4405928;28;654602;-71
2021/12/04 03:29:48;;;;;;;18.23;7.22;;;-5.20;1.00;;;;;;4422486;28;654764;-70
2021/12/04 03:41:59;;;;;;;17.60;5.67;;;-5.20;1.00;;;;;;4333899;28;655289;-71
2021/12/04 03:44:48;;;;;;;12.57;5.07;;;-5.10;1.00;;;;;;4336741;28;654241;-71
2021/12/04 03:47:39;;;;;;;14.00;4.83;;;-5.20;1.00;;;;;;4331503;28;654651;-71
2021/12/04 03:50:26;;;;;;;16.13;5.70;;;-5.10;1.00;;;;;;4334494;28;654394;-71
2021/12/04 03:53:14;;;;;;;10.73;4.70;;;-5.10;1.00;;;;;;4352560;28;654501;-70
2021/12/04 03:56:02;;;;;;;16.43;6.47;;;-5.10;1.00;;;;;;4350494;28;654306;-71
2021/12/04 03:58:51;;;;;;;35.03;14.57;;;-5.10;1.00;;;;;;4352605;28;654810;-71
2021/12/04 04:01:40;;;;;;;13.17;5.60;;;-5.10;1.00;;;;;;4361397;28;655524;-70
2021/12/04 04:04:28;;;;;;;16.23;5.03;;;-5.10;1.00;;;;;;4345287;28;654840;-71
2021/12/04 04:07:16;;;;;;;18.88;7.50;;;-5.00;1.00;;;;;;4356107;28;654563;-72
2021/12/04 04:10:03;;;;;;;25.47;9.60;;;-5.10;1.00;;;;;;4376488;28;655236;-71
2021/12/04 04:12:51;;;;;;;17.67;7.23;;;-5.10;1.00;;;;;;4342658;28;654986;-71
2021/12/04 04:15:39;;;;;;;17.77;7.30;;;-5.10;1.00;;;;;;4411145;28;654927;-71
2021/12/04 04:18:31;;;;;;;16.83;6.60;;;-5.10;1.00;;;;;;4410718;28;654586;-71
2021/12/04 04:21:18;;;;;;;15.63;6.10;;;-5.10;1.00;;;;;;4405898;28;654599;-70
2021/12/04 04:24:06;;;;;;;14.53;5.23;;;-5.10;1.00;;;;;;4400355;28;654634;-72
2021/12/04 04:26:54;;;;;;;23.97;7.17;;;-5.10;1.00;;;;;;4420929;28;654456;-71
2021/12/04 04:29:42;;;;;;;31.27;9.13;;;-5.20;1.00;;;;;;4404356;28;654126;-71
2021/12/04 04:32:30;;;;;;;37.25;10.35;;;-5.20;1.00;;;;;;4422800;28;655207;-70
2021/12/04 04:35:21;;;;;;;43.23;11.60;;;-5.20;1.00;;;;;;4407497;28;657517;-71
2021/12/04 04:38:27;;;;;;;39.60;9.83;;;-5.20;1.00;;;;;;4402359;28;656114;-71
2021/12/04 05:00:03;;;;;;;29.90;9.73;;;-5.30;1.00;;;;;;4375868;28;655772;-71
2021/12/04 05:12:17;;;;;;;22.37;7.73;;;-5.30;1.00;;;;;;4409624;28;654192;-70
2021/12/04 05:15:13;;;;;;;18.20;6.93;;;-5.20;1.00;;;;;;4404670;28;654306;-71
2021/12/04 05:18:10;;;;;;;15.93;6.50;;;-5.20;1.00;;;;;;4386133;28;654873;-72
2021/12/04 05:21:05;;;;;;;17.43;6.97;;;-5.10;1.00;;;;;;4405497;28;654796;-71
2021/12/04 05:23:54;;;;;;;23.77;8.00;;;-5.10;1.00;;;;;;4378640;28;655438;-71
2021/12/04 05:26:46;;;;;;;20.60;8.07;;;-5.00;1.00;;;;;;4409799;28;654436;-71
2021/12/04 05:29:41;;;;;;;21.30;7.47;;;-4.90;1.00;;;;;;4398210;28;655185;-71
2021/12/04 05:32:34;;;;;;;20.03;7.20;;;-4.80;1.00;;;;;;4402230;28;654733;-71
2021/12/04 05:35:26;;;;;;;18.58;6.93;;;-4.70;1.00;;;;;;4403969;28;655167;-71
2021/12/04 05:38:19;;;;;;;20.07;8.50;;;-4.70;1.00;;;;;;4401990;28;655164;-71
2021/12/04 05:41:10;;;;;;;22.13;7.97;;;-4.60;1.00;;;;;;4405281;28;654481;-71
2021/12/04 05:44:00;;;;;;;17.50;6.97;;;-4.60;1.00;;;;;;4389121;28;655645;-71
2021/12/04 05:46:54;;;;;;;18.53;7.93;;;-4.60;1.00;;;;;;4401005;28;654826;-71
2021/12/04 05:49:54;;;;;;;24.33;7.60;;;-4.50;1.00;;;;;;4382846;28;655681;-71
2021/12/04 05:52:52;;;;;;;22.13;7.80;;;-4.50;1.00;;;;;;4380700;28;654601;-71
2021/12/04 05:55:55;;;;;;;24.63;8.27;;;-4.40;1.00;;;;;;4403722;28;654192;-71
2021/12/04 05:58:43;;;;;;;26.13;8.80;;;-4.40;1.00;;;;;;4381207;28;655042;-71
2021/12/04 06:01:33;;;;;;;28.40;9.00;;;-4.30;13.30;;;;;;4401453;28;654308;-71
2021/12/04 06:04:27;;;;;;;27.67;8.57;;;-4.30;45.60;;;;;;4400957;28;655918;-72
2021/12/04 06:07:51;;;;;;;25.77;9.07;;;-4.20;35.60;;;;;;4398873;28;655290;-71
2021/12/04 06:10:39;;;;;;;25.17;9.13;;;-4.10;99.90;;;;;;4392928;28;655868;-71
2021/12/04 06:13:28;;;;;;;26.00;9.40;;;-4.10;99.90;;;;;;4397823;28;655279;-72
2021/12/04 06:16:16;;;;;;;25.27;8.17;;;-4.00;99.90;;;;;;4402844;28;655492;-72
2021/12/04 06:19:11;;;;;;;20.98;8.23;;;-3.90;99.90;;;;;;4420159;28;656066;-71
2021/12/04 06:25:03;;;;;;;21.70;7.50;;;-3.80;99.90;;;;;;4398845;28;656484;-72
2021/12/04 06:27:51;;;;;;;20.50;7.60;;;-3.70;99.90;;;;;;4403180;28;656084;-71
2021/12/04 06:30:42;;;;;;;21.17;6.93;;;-3.60;99.90;;;;;;4421801;28;656824;-71
2021/12/04 06:33:29;;;;;;;17.43;7.53;;;-3.60;99.90;;;;;;4397007;28;656292;-71
2021/12/04 06:36:17;;;;;;;27.03;9.00;;;-3.50;99.90;;;;;;4402659;28;657751;-71
2021/12/04 06:39:05;;;;;;;39.50;13.43;;;-3.50;99.90;;;;;;4423165;28;655434;-71
2021/12/04 06:41:53;;;;;;;35.38;11.52;;;-3.40;99.90;;;;;;4400847;28;657869;-71
2021/12/04 06:44:41;;;;;;;37.83;12.73;;;-3.40;99.90;;;;;;4399679;28;656540;-71
2021/12/04 06:47:31;;;;;;;29.77;11.80;;;-3.30;99.90;;;;;;4403509;28;657186;-70
2021/12/04 06:50:27;;;;;;;35.07;12.53;;;-3.30;99.90;;;;;;4395326;28;657158;-71
2021/12/04 06:53:23;;;;;;;33.50;12.63;;;-3.20;99.90;;;;;;4394224;28;657413;-71
2021/12/04 06:56:12;;;;;;;39.17;12.90;;;-3.20;99.90;;;;;;4383391;28;656806;-72
2021/12/04 06:59:04;;;;;;;23.80;9.37;;;-3.10;99.90;;;;;;4417323;28;657761;-71
2021/12/04 07:01:51;;;;;;;25.50;8.27;;;-3.00;99.90;;;;;;4379278;28;656037;-71
2021/12/04 07:04:41;;;;;;;22.90;7.00;;;-2.90;99.90;;;;;;4419431;28;655386;-71
2021/12/04 07:07:29;;;;;;;14.27;6.00;;;-2.80;99.90;;;;;;4401662;28;656389;-71
2021/12/04 07:10:17;;;;;;;20.10;6.73;;;-2.70;99.90;;;;;;4400338;28;655556;-70
2021/12/04 07:13:05;;;;;;;12.47;4.80;;;-2.50;99.90;;;;;;4423934;28;655508;-70
2021/12/04 07:16:01;;;;;;;11.53;4.47;;;-2.30;99.90;;;;;;4401314;28;655856;-71
2021/12/04 07:18:48;;;;;;;16.23;6.13;;;-2.20;99.90;;;;;;4400614;28;656776;-71
2021/12/04 07:21:37;;;;;;;14.07;5.50;;;-2.00;99.90;;;;;;4398716;28;655740;-71
2021/12/04 07:24:26;;;;;;;13.90;5.33;;;-1.90;99.90;;;;;;4422296;28;655331;-72
2021/12/04 07:27:14;;;;;;;13.23;5.20;;;-1.70;99.90;;;;;;4418637;28;656470;-71
2021/12/04 07:30:02;;;;;;;11.77;5.07;;;-1.50;99.90;;;;;;4399712;28;655945;-72
2021/12/04 07:32:50;;;;;;;11.65;5.30;;;-1.30;99.90;;;;;;4414915;28;655302;-71
2021/12/04 07:35:44;;;;;;;7.60;3.70;;;-1.10;99.90;;;;;;4403141;28;656320;-71
2021/12/04 07:38:38;;;;;;;10.67;3.93;;;-0.90;99.90;;;;;;4402624;28;655241;-72
2021/12/04 07:41:31;;;;;;;9.87;4.10;;;-0.70;99.90;;;;;;4385993;28;655731;-71
2021/12/04 07:44:23;;;;;;;9.80;4.77;;;-0.50;99.90;;;;;;4403272;28;654626;-71
2021/12/04 07:47:16;;;;;;;9.67;3.87;;;-0.30;99.90;;;;;;4399778;28;654700;-71
2021/12/04 07:50:05;;;;;;;11.73;4.67;;;-0.10;99.90;;;;;;4404673;28;654840;-70
2021/12/04 07:52:53;;;;;;;11.73;4.60;;;0.00;99.90;;;;;;4408821;28;655849;-70
2021/12/04 07:55:42;;;;;;;12.70;5.20;;;0.10;99.90;;;;;;4412995;28;654666;-71
2021/12/04 07:58:30;;;;;;;17.00;5.93;;;0.20;99.90;;;;;;4428630;28;655193;-71
2021/12/04 08:01:17;;;;;;;12.50;5.13;;;0.30;99.90;;;;;;4406133;28;655235;-72
2021/12/04 08:04:05;;;;;;;14.20;5.13;;;0.50;99.90;;;;;;4424444;28;654943;-72
2021/12/04 08:06:53;;;;;;;12.30;4.60;;;0.60;99.90;;;;;;4401879;28;655253;-71
2021/12/04 08:09:41;;;;;;;12.20;4.77;;;0.80;99.90;;;;;;4404616;28;654406;-72
2021/12/04 08:12:30;;;;;;;11.73;4.70;;;0.90;99.90;;;;;;4431315;28;655087;-71
2021/12/04 08:15:18;;;;;;;12.37;5.07;;;1.00;99.90;;;;;;4397822;28;655115;-71
2021/12/04 08:18:08;;;;;;;11.97;4.43;;;1.30;99.90;;;;;;4411830;28;654962;-71
2021/12/04 08:20:56;;;;;;;14.63;4.37;;;1.50;99.90;;;;;;4404598;28;654360;-72
2021/12/04 08:23:44;;;;;;;9.00;4.07;;;1.70;99.90;;;;;;4431308;28;655898;-71
2021/12/04 08:26:31;;;;;;;9.33;4.37;;;1.60;99.90;;;;;;4403336;28;653642;-71
2021/12/04 08:29:20;;;;;;;11.73;4.60;;;1.50;99.90;;;;;;4429870;28;654045;-71
2021/12/04 08:32:09;;;;;;;9.90;4.47;;;1.40;99.90;;;;;;4402253;28;654870;-71
2021/12/04 08:34:56;;;;;;;12.77;5.20;;;1.30;99.90;;;;;;4404471;28;654096;-72
2021/12/04 08:37:44;;;;;;;12.30;5.33;;;1.30;99.90;;;;;;4423114;28;654268;-72
2021/12/04 08:40:32;;;;;;;12.53;5.80;;;1.20;99.90;;;;;;4407169;28;654473;-71
2021/12/04 08:43:19;;;;;;;16.43;6.43;;;1.20;99.90;;;;;;4447795;28;654261;-71
2021/12/04 08:46:09;;;;;;;17.70;7.00;;;1.10;99.90;;;;;;4416170;28;654641;-72
2021/12/04 08:48:57;;;;;;;18.57;7.47;;;1.10;99.90;;;;;;4405599;28;655133;-71
2021/12/04 08:51:45;;;;;;;22.80;8.73;;;1.10;99.90;;;;;;4428316;28;654345;-71
2021/12/04 08:54:32;;;;;;;24.97;9.23;;;1.20;99.90;;;;;;4400841;28;655458;-71
2021/12/04 08:57:20;;;;;;;24.20;9.60;;;1.20;99.90;;;;;;4429782;28;654483;-70
2021/12/04 09:00:09;;;;;;;23.53;8.80;;;1.30;99.90;;;;;;4412225;28;655005;-71
2021/12/04 09:02:58;;;;;;;17.30;7.03;;;1.40;99.90;;;;;;4404421;28;654657;-70
2021/12/04 09:05:46;;;;;;;15.07;6.30;;;1.60;99.90;;;;;;4407500;28;654324;-71
2021/12/04 09:08:34;;;;;;;17.80;8.07;;;1.80;99.90;;;;;;4423856;28;654289;-70
2021/12/04 09:11:24;;;;;;;14.57;6.67;;;2.10;99.90;;;;;;4405793;28;654893;-71
2021/12/04 09:14:12;;;;;;;17.37;7.10;;;2.30;99.90;;;;;;4405592;28;654428;-71
2021/12/04 09:17:00;;;;;;;19.63;7.43;;;2.50;99.90;;;;;;4426326;28;654673;-71
2021/12/04 09:19:49;;;;;;;19.70;7.47;;;2.50;99.90;;;;;;4405895;28;654715;-71
2021/12/04 09:22:37;;;;;;;16.53;7.63;;;2.50;99.90;;;;;;4398718;28;654517;-70
2021/12/04 09:25:26;;;;;;;17.37;7.07;;;2.50;99.90;;;;;;4423801;28;655142;-69
2021/12/04 09:28:21;;;;;;;29.50;11.47;;;2.70;99.90;;;;;;4404962;28;654673;-70
2021/12/04 09:31:29;;;;;;;27.20;10.63;;;2.90;99.90;;;;;;4406076;28;656524;-70
2021/12/04 10:02:24;;;;;;;11.53;4.90;;;3.70;86.90;;;;;;4337569;28;653064;-69
2021/12/04 10:05:48;;;;;;;10.80;4.80;;;3.90;86.70;;;;;;4340199;28;654747;-69
2021/12/04 10:33:43;;;;;;;13.13;5.20;;;6.30;63.10;;;;;;4385100;28;651093;-69
2021/12/04 10:36:32;;;;;;;8.53;4.40;;;6.30;64.70;;;;;;4399415;28;651221;-71
2021/12/04 10:39:20;;;;;;;11.03;4.90;;;6.30;66.30;;;;;;4429166;28;650267;-70
2021/12/04 10:42:13;;;;;;;11.00;4.73;;;7.20;63.90;;;;;;4416468;28;652086;-70
2021/12/04 10:45:01;;;;;;;10.77;4.40;;;7.90;59.10;;;;;;4397350;28;651491;-71
2021/12/04 10:47:53;;;;;;;9.20;4.00;;;8.60;59.50;;;;;;4429962;28;652603;-71
2021/12/04 10:50:46;;;;;;;9.90;4.90;;;8.30;55.50;;;;;;4401681;28;652313;-71
2021/12/04 10:53:37;;;;;;;7.40;3.90;;;8.50;56.10;;;;;;4408111;28;652294;-71
2021/12/04 10:56:52;;;;;;;8.13;3.47;;;9.20;55.60;;;;;;4447022;28;651691;-74
2021/12/04 10:59:48;;;;;;;7.10;3.50;;;9.00;52.60;;;;;;4413415;28;652102;-70
2021/12/04 11:02:38;;;;;;;10.37;3.67;;;8.70;52.20;;;;;;4399798;28;651635;-73
2021/12/04 11:05:48;;;;;;;8.63;4.27;;;9.00;52.90;;;;;;4424511;28;652622;-71
2021/12/04 11:24:56;;;;;;;6.97;3.10;;;6.30;56.30;;;;;;4370839;28;651717;-69
2021/12/04 11:27:58;;;;;;;6.10;2.80;;;6.60;58.00;;;;;;4383152;28;652426;-70
2021/12/04 11:37:08;;;;;;;5.50;2.97;;;9.00;51.50;;;;;;4339607;28;651250;-71
2021/12/04 11:40:06;;;;;;;6.63;3.50;;;9.40;50.30;;;;;;4344245;28;651759;-70
2021/12/04 11:42:55;;;;;;;5.37;3.03;;;9.60;50.00;;;;;;4373417;28;652170;-70
2021/12/04 11:45:47;;;;;;;7.90;3.40;;;9.60;49.50;;;;;;4371650;28;652779;-69
2021/12/04 11:48:37;;;;;;;5.53;2.73;;;9.60;49.30;;;;;;4374804;28;651340;-71
2021/12/04 11:51:25;;;;;;;6.03;3.30;;;9.20;48.80;;;;;;4428809;28;651269;-69
2021/12/04 11:54:12;;;;;;;7.20;3.23;;;8.40;48.90;;;;;;4410808;28;651682;-70
2021/12/04 11:57:08;;;;;;;6.70;3.50;;;8.40;51.30;;;;;;4433504;28;651423;-72
2021/12/04 11:59:56;;;;;;;7.17;3.40;;;8.10;51.40;;;;;;4397264;28;651512;-71
2021/12/04 12:02:44;;;;;;;6.77;3.37;;;7.50;50.90;;;;;;4442430;28;652306;-70
2021/12/04 12:05:32;;;;;;;6.63;3.13;;;7.00;52.30;;;;;;4419227;28;651196;-70
2021/12/04 12:08:25;;;;;;;6.07;3.03;;;6.80;53.10;;;;;;4436436;28;651671;-68
2021/12/04 12:11:16;;;;;;;8.20;3.67;;;6.60;54.40;;;;;;4393190;28;651838;-68
2021/12/04 12:14:08;;;;;;;8.93;4.03;;;6.40;53.70;;;;;;4401402;28;652260;-68
2021/12/04 12:16:56;;;;;;;6.90;3.27;;;6.30;54.20;;;;;;4389651;28;651868;-69
2021/12/04 12:19:50;;;;;;;7.50;3.63;;;6.40;54.80;;;;;;4421036;28;651782;-68
2021/12/04 12:22:42;;;;;;;7.83;3.40;;;6.30;54.30;;;;;;4377667;28;652044;-69
2021/12/04 12:25:41;;;;;;;9.33;3.33;;;6.20;54.90;;;;;;4383568;28;652274;-68
2021/12/04 12:37:49;;;;;;;5.93;3.40;;;7.50;52.10;;;;;;4377768;28;652169;-69
2021/12/04 12:40:36;;;;;;;7.70;2.90;;;8.20;50.80;;;;;;4375903;28;651701;-70
2021/12/04 12:43:24;;;;;;;7.57;3.10;;;8.50;50.00;;;;;;4423136;28;651422;-69
2021/12/04 12:46:12;;;;;;;10.20;3.73;;;8.20;49.70;;;;;;4395650;28;651995;-69
2021/12/04 12:49:02;;;;;;;5.73;2.87;;;8.50;51.00;;;;;;4403715;28;652530;-69
2021/12/04 12:51:57;;;;;;;8.30;3.20;;;8.60;49.70;;;;;;4381095;28;651979;-69
2021/12/04 12:54:47;;;;;;;5.77;3.00;;;8.60;49.40;;;;;;4401223;28;651865;-70
2021/12/04 12:57:37;;;;;;;6.50;3.33;;;8.70;48.60;;;;;;4409297;28;651758;-70
2021/12/04 13:12:57;;;;;;;10.50;4.17;;;6.60;49.70;;;;;;4367683;28;653457;-68
2021/12/04 13:15:44;;;;;;;11.23;4.67;;;5.90;52.50;;;;;;4425107;28;653378;-68
2021/12/04 13:18:33;;;;;;;9.50;4.10;;;5.40;52.90;;;;;;4404246;28;655480;-69
2021/12/04 13:21:21;;;;;;;11.73;4.37;;;5.10;54.10;;;;;;4414369;28;652430;-68
2021/12/04 13:24:11;;;;;;;10.63;4.23;;;4.90;54.70;;;;;;4439228;28;653641;-68
2021/12/04 13:26:58;;;;;;;9.47;3.87;;;4.80;55.40;;;;;;4418406;28;654129;-68
2021/12/04 13:29:47;;;;;;;9.03;3.70;;;4.60;55.90;;;;;;4423030;28;652177;-69
2021/12/04 13:32:38;;;;;;;8.30;3.83;;;4.40;56.20;;;;;;4431643;28;652414;-68
2021/12/04 13:35:26;;;;;;;9.37;4.10;;;4.30;56.60;;;;;;4401102;28;653028;-68
2021/12/04 13:38:14;;;;;;;8.80;3.90;;;4.10;58.00;;;;;;4435779;28;653189;-68
2021/12/04 13:41:03;;;;;;;16.43;6.17;;;4.00;58.20;;;;;;4420877;28;652697;-68
2021/12/04 13:43:52;;;;;;;15.55;7.72;;;3.80;59.30;;;;;;4423075;28;653772;-68
2021/12/04 13:46:40;;;;;;;13.07;5.93;;;3.70;58.90;;;;;;4423600;28;653578;-68
2021/12/04 13:49:32;;;;;;;14.52;6.22;;;3.60;59.10;;;;;;4397076;28;654593;-68
2021/12/04 13:52:20;;;;;;;13.70;6.25;;;3.50;59.10;;;;;;4408202;28;653434;-68
2021/12/04 13:55:09;;;;;;;17.17;7.03;;;3.40;60.70;;;;;;4398174;28;654215;-67
2021/12/04 13:57:59;;;;;;;17.03;6.13;;;3.30;60.60;;;;;;4418449;28;653726;-68
2021/12/04 14:00:46;;;;;;;20.73;6.93;;;3.30;60.60;;;;;;4410557;28;653652;-68
2021/12/04 14:03:34;;;;;;;22.60;7.77;;;3.30;61.60;;;;;;4436128;28;654233;-68
2021/12/04 14:06:22;;;;;;;25.07;8.77;;;3.20;62.20;;;;;;4400389;28;653501;-68
2021/12/04 14:09:09;;;;;;;22.17;8.37;;;3.20;62.50;;;;;;4435485;28;653089;-67
2021/12/04 14:11:57;;;;;;;23.87;9.47;;;3.20;62.70;;;;;;4423943;28;653440;-68
2021/12/04 14:14:47;;;;;;;25.73;10.30;;;3.20;63.20;;;;;;4438271;28;653666;-68
2021/12/04 14:17:35;;;;;;;30.17;11.30;;;3.20;63.50;;;;;;4420283;28;654323;-68
2021/12/04 14:20:23;;;;;;;30.10;10.20;;;3.20;63.70;;;;;;4407094;28;654931;-68
2021/12/04 14:23:11;;;;;;;28.40;10.73;;;3.20;64.10;;;;;;4410410;28;654240;-68
2021/12/04 14:26:03;;;;;;;29.60;11.37;;;3.20;65.20;;;;;;4420099;28;655313;-68
2021/12/04 14:28:51;;;;;;;41.17;14.03;;;3.10;68.00;;;;;;4377463;28;654732;-68
2021/12/04 14:31:40;;;;;;;25.40;10.23;;;3.10;70.10;;;;;;4423445;28;655433;-68
2021/12/04 14:34:30;;;;;;;25.13;9.98;;;3.10;71.40;;;;;;4400079;28;655388;-68
2021/12/04 14:37:18;;;;;;;108.97;28.75;;;3.10;73.90;;;;;;4399534;28;655441;-68
2021/12/04 14:40:07;;;;;;;133.32;33.97;;;3.10;75.70;;;;;;4403905;28;655871;-68
2021/12/04 14:42:55;;;;;;;62.43;19.47;;;3.00;78.80;;;;;;4412157;28;654946;-68
2021/12/04 14:45:44;;;;;;;32.87;12.90;;;3.00;79.70;;;;;;4393427;28;654927;-67
2021/12/04 14:48:35;;;;;;;57.10;18.70;;;2.90;78.80;;;;;;4394428;28;654900;-69
2021/12/04 14:51:24;;;;;;;50.50;17.00;;;2.80;1.00;;;;;;4395266;28;655729;-68
2021/12/04 14:54:11;;;;;;;46.97;16.70;;;2.80;1.00;;;;;;4408618;28;653294;-70
2021/12/04 14:57:00;;;;;;;53.03;17.30;;;2.70;1.00;;;;;;4437932;28;654049;-68
2021/12/04 14:59:48;;;;;;;48.03;16.27;;;2.70;1.00;;;;;;4416130;28;654197;-69
2021/12/04 15:02:36;;;;;;;49.23;16.43;;;2.60;1.00;;;;;;4434506;28;653812;-70
2021/12/04 15:05:33;;;;;;;57.40;15.90;;;2.50;99.90;;;;;;4452469;28;654315;-69
2021/12/04 15:08:23;;;;;;;43.97;16.27;;;2.40;1.00;;;;;;4402963;28;655352;-69
2021/12/04 15:11:14;;;;;;;40.03;14.83;;;2.40;99.90;;;;;;4430460;28;655653;-69
2021/12/04 15:14:06;;;;;;;81.93;22.53;;;2.30;1.00;;;;;;4426174;28;655636;-69
2021/12/04 15:16:59;;;;;;;64.30;19.70;;;2.10;1.00;;;;;;4419844;28;654404;-69
2021/12/04 15:19:47;;;;;;;62.00;21.27;;;2.00;1.00;;;;;;4390912;28;654757;-68
2021/12/04 15:22:41;;;;;;;49.67;17.67;;;1.90;70.10;;;;;;4438338;28;654197;-69
2021/12/04 15:25:32;;;;;;;46.53;16.57;;;1.90;99.90;;;;;;4409691;28;655442;-69
2021/12/04 15:28:22;;;;;;;32.90;11.93;;;1.90;99.90;;;;;;4418410;28;655751;-69
2021/12/04 15:31:09;;;;;;;20.30;8.37;;;1.90;1.00;;;;;;4419296;28;655855;-69
2021/12/04 15:33:58;;;;;;;19.27;6.70;;;1.80;99.90;;;;;;4421625;28;653681;-69
2021/12/04 15:36:50;;;;;;;17.70;6.83;;;1.80;1.00;;;;;;4424924;28;654911;-69
2021/12/04 15:39:42;;;;;;;11.10;4.83;;;1.70;1.00;;;;;;4414496;28;654061;-69
2021/12/04 15:42:46;;;;;;;9.67;4.13;;;1.60;99.90;;;;;;4438497;28;654142;-70
2021/12/04 15:45:41;;;;;;;6.27;2.40;;;1.50;99.90;;;;;;4422179;28;653634;-69
2021/12/04 15:54:53;;;;;;;8.50;3.28;;;1.40;1.00;;;;;;4347316;28;653216;-69
2021/12/04 15:57:41;;;;;;;11.00;3.80;;;1.30;1.00;;;;;;4343566;28;652616;-69
2021/12/04 16:00:30;;;;;;;11.07;4.40;;;1.30;1.00;;;;;;4381596;28;654509;-69
2021/12/04 16:03:18;;;;;;;13.10;5.00;;;1.20;1.00;;;;;;4355296;28;653667;-68
2021/12/04 16:06:10;;;;;;;15.80;6.77;;;1.20;1.00;;;;;;4358880;28;653945;-69
2021/12/04 16:08:58;;;;;;;20.47;8.17;;;1.20;1.00;;;;;;4356714;28;654071;-69
2021/12/04 16:11:47;;;;;;;24.90;10.10;;;1.20;1.00;;;;;;4348611;28;653281;-69
2021/12/04 16:14:35;;;;;;;30.57;12.10;;;1.20;1.00;;;;;;4377309;28;654295;-69
2021/12/04 16:17:23;;;;;;;34.73;14.17;;;1.20;1.00;;;;;;4350593;28;655406;-69
2021/12/04 16:20:16;;;;;;;39.77;15.87;;;1.20;1.00;;;;;;4359184;28;654852;-68
2021/12/04 16:23:04;;;;;;;34.43;13.63;;;1.20;1.00;;;;;;4347215;28;655604;-68
2021/12/04 16:25:52;;;;;;;25.90;10.10;;;1.20;1.00;;;;;;4357261;28;654392;-68
2021/12/04 16:29:00;;;;;;;23.45;9.70;;;1.20;1.00;;;;;;4355409;28;654833;-69
2021/12/04 16:38:08;;;;;;;24.20;10.43;;;1.20;1.00;;;;;;4375403;28;649356;-69
2021/12/04 16:40:56;;;;;;;41.90;15.37;;;1.20;1.00;;;;;;4397301;28;650285;-68
2021/12/04 16:43:46;;;;;;;104.73;36.17;;;1.20;1.00;;;;;;4399285;28;651306;-69
2021/12/04 16:46:35;;;;;;;57.57;20.07;;;1.20;1.00;;;;;;4371249;28;651693;-69
2021/12/04 16:49:23;;;;;;;53.60;20.17;;;1.20;1.00;;;;;;4371377;28;651115;-69
2021/12/04 16:55:26;;;;;;;41.97;17.43;;;1.20;1.00;;;;;;4340511;28;651499;-69
2021/12/04 16:58:14;;;;;;;46.00;19.27;;;1.20;1.00;;;;;;4362182;28;651560;-69
2021/12/04 17:01:02;;;;;;;51.28;19.42;;;1.20;1.00;;;;;;4369313;28;651764;-70
2021/12/04 17:03:50;;;;;;;49.50;17.90;;;1.20;1.00;;;;;;4383514;28;652324;-69
2021/12/04 17:06:38;;;;;;;42.70;15.97;;;1.20;1.00;;;;;;4361830;28;653125;-69
2021/12/04 17:09:27;;;;;;;41.90;14.37;;;1.20;1.00;;;;;;4376602;28;652589;-70
2021/12/04 17:12:15;;;;;;;34.70;12.10;;;1.20;1.00;;;;;;4373949;28;652481;-69
2021/12/04 17:15:03;;;;;;;37.33;13.63;;;1.20;1.00;;;;;;4350117;28;652957;-69